createdAt,value
2018-06-09T00:02:39.187Z,16.10
2018-06-09T00:05:32.645Z,16.10
2018-06-09T00:08:07.515Z,16.20
2018-06-09T00:13:17.582Z,16.10
2018-06-09T00:15:52.476Z,16.20
2018-06-09T00:18:27.318Z,16.10
2018-06-09T00:21:01.607Z,16.10
2018-06-09T00:23:36.417Z,16.00
2018-06-09T00:26:11.212Z,16.00
2018-06-09T00:31:20.250Z,15.90
2018-06-09T00:36:29.316Z,15.70
2018-06-09T00:39:06.378Z,15.60
2018-06-09T00:41:41.176Z,15.60
2018-06-09T00:44:16.000Z,15.60
2018-06-09T00:46:51.237Z,15.60
2018-06-09T00:49:26.013Z,15.60
2018-06-09T00:52:00.883Z,15.50
2018-06-09T00:54:36.692Z,15.50
2018-06-09T00:57:10.925Z,15.40
2018-06-09T01:02:24.142Z,15.30
2018-06-09T01:04:58.360Z,15.30
2018-06-09T01:07:32.611Z,15.30
2018-06-09T01:10:06.982Z,15.20
2018-06-09T01:12:41.804Z,15.20
2018-06-09T01:15:16.024Z,15.20
2018-06-09T01:17:50.819Z,15.10
2018-06-09T01:20:25.158Z,15.10
2018-06-09T01:22:59.410Z,15.00
2018-06-09T01:28:08.384Z,15.00
2018-06-09T01:30:44.221Z,15.00
2018-06-09T01:33:18.491Z,14.90
2018-06-09T01:35:52.719Z,14.80
2018-06-09T01:38:27.979Z,14.70
2018-06-09T01:41:02.699Z,14.60
2018-06-09T01:46:12.235Z,14.50
2018-06-09T01:48:46.463Z,14.50
2018-06-09T01:51:20.836Z,14.40
2018-06-09T01:53:56.140Z,14.50
2018-06-09T01:56:31.400Z,14.50
2018-06-09T01:59:05.694Z,14.50
2018-06-09T02:01:39.950Z,14.60
2018-06-09T02:04:14.186Z,14.60
2018-06-09T02:06:48.402Z,14.60
2018-06-09T02:09:22.621Z,14.50
2018-06-09T02:11:56.855Z,14.50
2018-06-09T02:14:32.105Z,14.50
2018-06-09T02:17:06.345Z,14.50
2018-06-09T02:19:40.589Z,14.50
2018-06-09T02:22:15.887Z,14.40
2018-06-09T02:24:51.104Z,14.40
2018-06-09T02:27:25.308Z,14.30
2018-06-09T02:30:01.670Z,14.20
2018-06-09T02:35:24.258Z,14.30
2018-06-09T02:37:58.608Z,14.40
2018-06-09T02:40:34.070Z,14.40
2018-06-09T02:43:09.351Z,14.40
2018-06-09T02:45:45.608Z,14.40
2018-06-09T02:48:19.822Z,14.30
2018-06-09T02:50:54.055Z,14.30
2018-06-09T02:53:28.292Z,14.20
2018-06-09T02:56:02.536Z,14.10
2018-06-09T03:01:11.559Z,14.20
2018-06-09T03:03:46.837Z,14.20
2018-06-09T03:06:21.118Z,14.30
2018-06-09T03:08:55.396Z,14.40
2018-06-09T03:11:29.618Z,14.50
2018-06-09T03:14:03.929Z,14.60
2018-06-09T03:16:38.168Z,14.70
2018-06-09T03:19:12.456Z,14.80
2018-06-09T03:21:46.706Z,15.20
2018-06-09T03:24:20.960Z,16.20
2018-06-09T03:26:55.773Z,16.20
2018-06-09T03:32:03.783Z,16.60
2018-06-09T03:34:38.602Z,17.10
2018-06-09T03:37:13.575Z,17.70
2018-06-09T03:39:48.400Z,18.20
2018-06-09T03:42:24.217Z,18.60
2018-06-09T03:44:59.049Z,18.80
2018-06-09T03:47:34.849Z,19.20
2018-06-09T03:50:09.676Z,19.70
2018-06-09T03:52:45.553Z,20.00
2018-06-09T03:55:20.363Z,20.20
2018-06-09T03:57:55.351Z,20.30
2018-06-09T04:00:30.771Z,20.40
2018-06-09T04:03:23.450Z,20.70
2018-06-09T04:05:58.420Z,21.30
2018-06-09T04:08:33.196Z,22.00
2018-06-09T04:11:08.189Z,22.50
2018-06-09T04:13:42.971Z,23.00
2018-06-09T04:16:17.779Z,23.60
2018-06-09T04:18:52.562Z,24.30
2018-06-09T04:21:27.380Z,24.80
2018-06-09T04:24:02.190Z,25.20
2018-06-09T04:26:36.955Z,25.50
2018-06-09T04:29:11.756Z,25.80
2018-06-09T04:31:46.567Z,26.20
2018-06-09T04:34:22.372Z,26.20
2018-06-09T04:36:57.169Z,26.30
2018-06-09T04:39:31.963Z,26.50
2018-06-09T04:42:06.756Z,26.70
2018-06-09T04:44:41.542Z,26.80
2018-06-09T04:47:16.299Z,26.90
2018-06-09T04:49:53.124Z,27.10
2018-06-09T04:52:27.924Z,27.50
2018-06-09T04:55:03.744Z,27.70
2018-06-09T04:57:38.543Z,27.80
2018-06-09T05:00:14.344Z,28.30
2018-06-09T05:02:49.160Z,29.10
2018-06-09T05:05:26.641Z,29.80
2018-06-09T05:08:01.149Z,30.10
2018-06-09T05:13:10.574Z,30.20
2018-06-09T05:15:45.130Z,30.00
2018-06-09T05:18:19.803Z,29.60
2018-06-09T05:20:54.327Z,29.40
2018-06-09T05:23:29.101Z,29.00
2018-06-09T05:26:03.930Z,28.50
2018-06-09T05:31:14.027Z,27.30
2018-06-09T05:33:48.841Z,26.30
2018-06-09T05:36:23.661Z,25.50
2018-06-09T05:38:59.604Z,25.10
2018-06-09T05:41:34.480Z,25.10
2018-06-09T05:44:10.311Z,25.20
2018-06-09T05:46:45.157Z,25.60
2018-06-09T05:49:19.957Z,26.20
2018-06-09T05:51:54.750Z,26.70
2018-06-09T05:54:29.543Z,26.70
2018-06-09T05:57:04.352Z,26.70
2018-06-09T05:59:40.133Z,26.30
2018-06-09T06:02:14.956Z,26.10
2018-06-09T06:04:49.772Z,26.60
2018-06-09T06:07:28.488Z,27.70
2018-06-09T06:10:03.248Z,28.60
2018-06-09T06:12:38.054Z,29.30
2018-06-09T06:15:12.873Z,29.30
2018-06-09T06:17:47.396Z,29.30
2018-06-09T06:20:22.912Z,29.60
2018-06-09T06:22:57.401Z,29.50
2018-06-09T06:25:31.935Z,29.50
2018-06-09T06:30:40.452Z,30.00
2018-06-09T06:35:49.951Z,30.10
2018-06-09T06:38:24.540Z,30.40
2018-06-09T06:43:33.073Z,30.90
2018-06-09T06:46:07.587Z,30.60
2018-06-09T06:48:43.112Z,30.10
2018-06-09T06:51:17.604Z,29.40
2018-06-09T06:53:52.107Z,29.00
2018-06-09T06:56:26.670Z,28.80
2018-06-09T06:59:01.282Z,28.80
2018-06-09T07:01:35.764Z,29.00
2018-06-09T07:04:11.301Z,29.30
2018-06-09T07:06:46.796Z,29.30
2018-06-09T07:09:21.276Z,29.80
2018-06-09T07:11:55.835Z,30.20
2018-06-09T07:14:30.351Z,30.90
2018-06-09T07:17:04.884Z,31.20
2018-06-09T07:19:39.391Z,31.50
2018-06-09T07:22:13.978Z,32.30
2018-06-09T07:24:49.648Z,32.40
2018-06-09T07:27:24.141Z,32.50
2018-06-09T07:29:58.612Z,32.40
2018-06-09T07:32:33.123Z,32.20
2018-06-09T07:35:07.698Z,32.20
2018-06-09T07:37:42.355Z,32.40
2018-06-09T07:40:19.697Z,32.50
2018-06-09T07:45:28.167Z,32.80
2018-06-09T07:48:02.747Z,32.90
2018-06-09T07:53:12.326Z,33.20
2018-06-09T07:55:47.028Z,33.50
2018-06-09T08:00:55.544Z,33.50
2018-06-09T08:03:31.027Z,33.70
2018-06-09T08:09:42.342Z,34.10
2018-06-09T08:12:43.238Z,34.00
2018-06-09T08:15:33.332Z,34.10
2018-06-09T08:18:10.612Z,34.20
2018-06-09T08:23:19.182Z,34.40
2018-06-09T08:25:53.803Z,34.20
2018-06-09T08:28:28.342Z,34.00
2018-06-09T08:31:02.922Z,33.20
2018-06-09T08:33:37.507Z,32.60
2018-06-09T08:36:12.214Z,32.30
2018-06-09T08:38:46.906Z,32.20
2018-06-09T08:41:21.659Z,32.40
2018-06-09T08:43:56.200Z,32.50
2018-06-09T08:46:30.785Z,32.70
2018-06-09T08:49:05.299Z,33.00
2018-06-09T08:51:41.099Z,33.20
2018-06-09T08:54:15.618Z,33.20
2018-06-09T08:56:50.195Z,33.00
2018-06-09T08:59:25.775Z,32.70
2018-06-09T09:02:01.312Z,33.00
2018-06-09T09:04:35.734Z,33.30
2018-06-09T09:07:10.232Z,33.80
2018-06-09T09:09:44.666Z,34.00
2018-06-09T09:12:20.167Z,34.30
2018-06-09T09:17:28.691Z,34.70
2018-06-09T09:20:03.140Z,34.90
2018-06-09T09:22:38.610Z,35.00
2018-06-09T09:25:13.043Z,35.00
2018-06-09T09:27:48.503Z,35.10
2018-06-09T09:30:22.954Z,35.20
2018-06-09T09:32:58.474Z,35.10
2018-06-09T09:35:32.936Z,35.30
2018-06-09T09:38:08.454Z,35.30
2018-06-09T09:40:42.858Z,35.10
2018-06-09T09:45:51.301Z,35.00
2018-06-09T09:48:25.768Z,35.00
2018-06-09T09:51:00.284Z,35.00
2018-06-09T09:53:34.695Z,34.90
2018-06-09T09:56:09.168Z,34.70
2018-06-09T10:01:17.588Z,34.60
2018-06-09T10:03:53.107Z,34.50
2018-06-09T10:06:27.508Z,34.20
2018-06-09T10:09:01.962Z,33.90
2018-06-09T10:11:36.521Z,33.60
2018-06-09T10:17:25.570Z,33.20
2018-06-09T10:20:07.515Z,32.90
2018-06-09T10:25:16.021Z,32.60
2018-06-09T10:27:50.470Z,32.50
2018-06-09T10:30:24.915Z,32.50
2018-06-09T10:32:59.387Z,32.30
2018-06-09T10:35:33.852Z,32.40
2018-06-09T10:38:08.330Z,32.50
2018-06-09T10:40:42.781Z,32.40
2018-06-09T10:43:17.214Z,32.30
2018-06-09T10:45:51.711Z,32.10
2018-06-09T10:48:26.159Z,32.00
2018-06-09T10:51:00.584Z,32.00
2018-06-09T10:53:35.071Z,31.70
2018-06-09T10:56:09.543Z,31.70
2018-06-09T10:58:44.038Z,31.70
2018-06-09T11:01:18.461Z,31.80
2018-06-09T11:03:52.935Z,31.70
2018-06-09T11:06:28.439Z,31.70
2018-06-09T11:14:10.870Z,31.30
2018-06-09T11:16:45.288Z,31.20
2018-06-09T11:19:19.761Z,31.20
2018-06-09T11:21:54.256Z,31.10
2018-06-09T11:24:28.727Z,31.00
2018-06-09T11:27:03.399Z,30.80
2018-06-09T11:29:37.864Z,30.80
2018-06-09T11:32:12.291Z,30.70
2018-06-09T11:34:46.747Z,30.80
2018-06-09T11:37:21.196Z,31.00
2018-06-09T11:39:55.652Z,31.10
2018-06-09T11:42:30.112Z,30.90
2018-06-09T11:45:04.610Z,30.70
2018-06-09T11:50:12.996Z,30.40
2018-06-09T11:52:47.443Z,30.20
2018-06-09T11:55:21.947Z,30.10
2018-06-09T12:00:30.377Z,29.90
2018-06-09T12:03:04.744Z,30.00
2018-06-09T12:05:39.257Z,30.00
2018-06-09T12:08:13.809Z,29.90
2018-06-09T12:10:48.264Z,29.80
2018-06-09T12:13:22.722Z,29.70
2018-06-09T12:15:57.152Z,29.40
2018-06-09T12:18:31.592Z,29.20
2018-06-09T12:21:07.050Z,28.90
2018-06-09T12:23:42.473Z,28.70
2018-06-09T12:26:17.324Z,28.60
2018-06-09T12:28:52.066Z,28.50
2018-06-09T12:31:26.824Z,28.40
2018-06-09T12:34:01.519Z,28.20
2018-06-09T12:36:37.243Z,28.20
2018-06-09T12:39:11.976Z,28.10
2018-06-09T12:41:46.796Z,28.20
2018-06-09T12:44:21.487Z,28.30
2018-06-09T12:49:30.548Z,28.20
2018-06-09T12:52:06.318Z,28.10
2018-06-09T12:54:40.999Z,28.10
2018-06-09T12:57:15.799Z,28.00
2018-06-09T12:59:50.544Z,27.90
2018-06-09T13:02:25.301Z,27.80
2018-06-09T13:05:00.009Z,27.80
2018-06-09T13:10:09.012Z,27.60
2018-06-09T13:12:43.764Z,27.30
2018-06-09T13:15:18.456Z,27.10
2018-06-09T13:17:53.281Z,26.90
2018-06-09T13:20:29.112Z,26.80
2018-06-09T13:23:03.858Z,26.80
2018-06-09T13:25:38.591Z,26.80
2018-06-09T13:28:13.373Z,26.80
2018-06-09T13:35:56.640Z,26.60
2018-06-09T13:38:31.580Z,26.60
2018-06-09T13:41:06.347Z,26.60
2018-06-09T13:43:41.121Z,26.60
2018-06-09T13:46:15.887Z,26.60
2018-06-09T13:48:50.619Z,26.60
2018-06-09T13:51:25.381Z,26.60
2018-06-09T13:54:00.089Z,26.40
2018-06-09T13:56:34.859Z,26.40
2018-06-09T13:59:09.991Z,26.40
2018-06-09T14:01:45.818Z,26.30
2018-06-09T14:04:20.512Z,26.20
2018-06-09T14:06:55.319Z,26.20
2018-06-09T14:12:05.474Z,26.10
2018-06-09T14:14:41.182Z,26.10
2018-06-09T14:17:15.963Z,26.00
2018-06-09T14:19:50.704Z,25.90
2018-06-09T14:22:25.481Z,25.90
2018-06-09T14:27:35.531Z,26.00
2018-06-09T14:30:10.224Z,26.00
2018-06-09T14:32:45.044Z,26.00
2018-06-09T14:35:19.938Z,26.10
2018-06-09T14:37:55.711Z,26.20
2018-06-09T14:40:30.427Z,26.10
2018-06-09T14:43:05.210Z,25.90
2018-06-09T14:45:39.940Z,25.80
2018-06-09T14:48:15.763Z,25.70
2018-06-09T14:50:50.459Z,25.50
2018-06-09T14:53:25.283Z,25.60
2018-06-09T14:56:00.011Z,25.80
2018-06-09T14:58:34.820Z,25.80
2018-06-09T15:01:09.596Z,25.80
2018-06-09T15:03:45.348Z,25.90
2018-06-09T15:06:20.056Z,26.00
2018-06-09T15:08:54.807Z,26.00
2018-06-09T15:11:29.586Z,26.20
2018-06-09T15:14:04.569Z,26.20
2018-06-09T15:16:39.309Z,26.20
2018-06-09T15:19:14.049Z,26.30
2018-06-09T15:21:48.777Z,26.30
2018-06-09T15:24:24.586Z,26.40
2018-06-09T15:26:59.371Z,26.40
2018-06-09T15:29:34.123Z,26.40
2018-06-09T15:32:09.989Z,26.30
2018-06-09T15:34:44.696Z,26.20
2018-06-09T15:37:19.506Z,26.00
2018-06-09T15:39:54.247Z,26.00
2018-06-09T15:42:28.993Z,25.80
2018-06-09T15:45:03.773Z,25.70
2018-06-09T15:47:39.507Z,25.50
2018-06-09T15:50:15.274Z,25.40
2018-06-09T15:52:50.053Z,25.30
2018-06-09T15:55:24.752Z,25.10
2018-06-09T15:57:59.509Z,25.00
2018-06-09T16:00:34.263Z,25.00
2018-06-09T16:03:08.988Z,25.00
2018-06-09T16:05:44.688Z,24.90
2018-06-09T16:08:19.440Z,24.80
2018-06-09T16:10:55.224Z,24.80
2018-06-09T16:13:29.944Z,24.70
2018-06-09T16:21:14.204Z,24.40
2018-06-09T16:23:48.891Z,24.40
2018-06-09T16:26:24.670Z,24.40
2018-06-09T16:28:59.364Z,24.40
2018-06-09T16:31:34.102Z,24.40
2018-06-09T16:34:08.897Z,24.40
2018-06-09T16:36:43.643Z,24.40
2018-06-09T16:39:19.377Z,24.40
2018-06-09T16:41:54.141Z,24.40
2018-06-09T16:44:28.872Z,24.30
2018-06-09T16:47:04.610Z,24.30
2018-06-09T16:49:39.347Z,24.30
2018-06-09T16:52:14.075Z,24.20
2018-06-09T16:54:48.783Z,24.20
2018-06-09T16:57:23.530Z,24.20
2018-06-09T16:59:58.277Z,24.10
2018-06-09T17:02:33.055Z,24.00
2018-06-09T17:05:08.838Z,23.90
2018-06-09T17:07:43.566Z,23.80
2018-06-09T17:10:19.328Z,23.70
2018-06-09T17:12:54.083Z,23.60
2018-06-09T17:15:28.861Z,23.60
2018-06-09T17:18:03.596Z,23.50
2018-06-09T17:20:38.350Z,23.50
2018-06-09T17:23:13.051Z,23.40
2018-06-09T17:25:47.785Z,23.50
2018-06-09T17:28:23.555Z,23.40
2018-06-09T17:33:33.619Z,23.30
2018-06-09T17:36:08.368Z,23.40
2018-06-09T17:38:43.116Z,23.30
2018-06-09T17:41:18.026Z,23.30
2018-06-09T17:43:53.800Z,23.20
2018-06-09T17:46:28.536Z,23.10
2018-06-09T17:49:03.256Z,23.00
2018-06-09T17:51:37.984Z,22.80
2018-06-09T17:54:13.732Z,22.70
2018-06-09T17:56:48.769Z,22.70
2018-06-09T17:59:24.531Z,22.60
2018-06-09T18:01:59.228Z,22.50
2018-06-09T18:04:33.964Z,22.40
2018-06-09T18:07:08.661Z,22.30
2018-06-09T18:09:43.455Z,22.20
2018-06-09T18:12:19.220Z,22.10
2018-06-09T18:14:55.104Z,22.00
2018-06-09T18:17:29.795Z,21.90
2018-06-09T18:20:04.609Z,21.80
2018-06-09T18:22:39.339Z,21.70
2018-06-09T18:25:14.076Z,21.60
2018-06-09T18:30:24.041Z,21.50
2018-06-09T18:32:58.783Z,21.50
2018-06-09T18:35:33.578Z,21.40
2018-06-09T18:38:08.290Z,21.40
2018-06-09T18:40:43.096Z,21.40
2018-06-09T18:43:23.515Z,21.40
2018-06-09T18:48:45.155Z,21.30
2018-06-09T18:51:19.875Z,21.30
2018-06-09T18:56:28.843Z,21.30
2018-06-09T18:59:04.017Z,21.20
2018-06-09T19:01:39.425Z,21.20
2018-06-09T19:04:14.211Z,21.20
2018-06-09T19:06:48.913Z,21.10
2018-06-09T19:09:23.683Z,21.10
2018-06-09T19:11:58.427Z,21.10
2018-06-09T19:14:34.199Z,21.10
2018-06-09T19:17:08.910Z,21.10
2018-06-09T19:19:43.676Z,21.10
2018-06-09T19:22:18.413Z,21.10
2018-06-09T19:27:27.468Z,21.10
2018-06-09T19:30:03.242Z,21.00
2018-06-09T19:32:38.026Z,20.90
2018-06-09T19:35:12.795Z,20.90
2018-06-09T19:37:48.623Z,20.80
2018-06-09T19:40:23.397Z,20.80
2018-06-09T19:42:58.149Z,20.80
2018-06-09T19:45:33.595Z,20.80
2018-06-09T19:48:14.432Z,20.70
2018-06-09T19:50:50.886Z,20.70
2018-06-09T19:53:25.889Z,20.60
2018-06-09T19:56:08.989Z,20.60
2018-06-09T20:01:18.118Z,20.60
2018-06-09T20:03:53.839Z,20.70
2018-06-09T20:06:28.605Z,20.60
2018-06-09T20:09:04.617Z,20.70
2018-06-09T20:11:39.391Z,20.70
2018-06-09T20:14:14.116Z,20.70
2018-06-09T20:16:48.918Z,20.80
2018-06-09T20:19:23.651Z,20.80
2018-06-09T20:21:58.414Z,20.70
2018-06-09T20:24:33.111Z,20.70
2018-06-09T20:27:07.879Z,20.60
2018-06-09T20:29:42.598Z,20.60
2018-06-09T20:32:17.432Z,20.50
2018-06-09T20:34:53.852Z,20.50
2018-06-09T20:37:28.751Z,20.50
2018-06-09T20:40:05.456Z,20.50
2018-06-09T20:42:40.969Z,20.50
2018-06-09T20:45:15.712Z,20.50
2018-06-09T20:47:50.467Z,20.50
2018-06-09T20:50:25.211Z,20.60
2018-06-09T20:53:00.035Z,20.50
2018-06-09T20:58:09.064Z,20.50
2018-06-09T21:00:43.759Z,20.50
2018-06-09T21:03:18.514Z,20.50
2018-06-09T21:05:53.234Z,20.60
2018-06-09T21:08:28.165Z,20.60
2018-06-09T21:11:02.871Z,20.60
2018-06-09T21:13:37.627Z,20.60
2018-06-09T21:16:12.327Z,20.50
2018-06-09T21:18:47.120Z,20.50
2018-06-09T21:21:22.840Z,20.40
2018-06-09T21:23:58.592Z,20.40
2018-06-09T21:26:39.529Z,20.40
2018-06-09T21:29:19.652Z,20.30
2018-06-09T21:31:54.375Z,20.20
2018-06-09T21:34:44.269Z,20.20
2018-06-09T21:40:22.568Z,19.90
2018-06-09T21:43:06.600Z,19.80
2018-06-09T21:45:47.686Z,19.70
2018-06-09T21:51:07.144Z,19.70
2018-06-09T21:54:04.668Z,19.60
2018-06-09T21:56:47.464Z,19.70
2018-06-09T21:59:35.884Z,19.70
2018-06-09T22:02:10.910Z,19.70
2018-06-09T22:07:20.773Z,19.70
2018-06-09T22:09:55.600Z,19.60
2018-06-09T22:15:05.876Z,19.60
2018-06-09T22:20:16.105Z,19.60
2018-06-09T22:22:50.919Z,19.60
2018-06-09T22:25:30.841Z,19.60
2018-06-09T22:28:05.640Z,19.60
2018-06-09T22:30:40.351Z,19.60
2018-06-09T22:33:15.078Z,19.50
2018-06-09T22:35:49.811Z,19.50
2018-06-09T22:38:25.556Z,19.40
2018-06-09T22:41:00.301Z,19.40
2018-06-09T22:46:09.272Z,19.30
2018-06-09T22:48:43.995Z,19.20
2018-06-09T22:51:18.725Z,19.20
2018-06-09T22:53:53.516Z,19.10
2018-06-09T22:56:28.228Z,19.00
2018-06-09T22:59:02.985Z,19.00
2018-06-09T23:01:37.718Z,18.90
2018-06-09T23:04:12.541Z,18.90
2018-06-09T23:09:22.502Z,18.80
2018-06-09T23:11:57.205Z,18.80
2018-06-09T23:17:07.134Z,18.80
2018-06-09T23:19:41.959Z,18.70
2018-06-09T23:22:16.685Z,18.70
2018-06-09T23:24:51.474Z,18.70
2018-06-09T23:27:26.126Z,18.60
2018-06-09T23:30:00.899Z,18.60
2018-06-09T23:32:35.660Z,18.50
2018-06-09T23:35:10.399Z,18.50
2018-06-09T23:37:45.065Z,18.40
2018-06-09T23:40:19.911Z,18.30
2018-06-09T23:42:54.612Z,18.30
2018-06-09T23:45:29.381Z,18.20
2018-06-09T23:48:04.138Z,18.20
2018-06-09T23:50:38.904Z,18.10
2018-06-09T23:53:13.644Z,18.00
2018-06-09T23:55:49.433Z,17.90
2018-06-09T23:58:24.170Z,17.90
